Terminal Aerodrome Forecast
Issued by NWS

Home | Current Version | Previous Version | Graphics & Text | Print | Product List | Glossary On
Versions: 1 2 3 4 5 6 7 8 9 10 11 12 13 14 15 16 17
182
FTUS45 KGGW 281125 AAB
TAFSDY
TAF AMD
KSDY 281125Z 2811/2912 04005KT P6SM OVC005
      TEMPO 2812/2815 4SM BR
     FM281500 10006KT P6SM VCSH BKN010
     FM281700 VRB05KT P6SM VCSH BKN020
     FM281900 23005KT P6SM -SHRA BKN040
     FM282000 29006KT P6SM -SHRA BKN040
     FM290100 30008KT P6SM FEW150
      AMD LTD TO CLD VIS AND WIND=

USA.gov is the U.S. government's official web portal to all federal, state and local government web resources and services.